createdAt,value
2018-11-27T00:00:01.626Z,0
2018-11-27T00:00:42.183Z,0
2018-11-27T00:01:22.751Z,0
2018-11-27T00:02:03.316Z,0
2018-11-27T00:02:43.885Z,0
2018-11-27T00:03:24.429Z,0
2018-11-27T00:04:04.999Z,0
2018-11-27T00:04:45.568Z,0
2018-11-27T00:05:26.120Z,0
2018-11-27T00:06:06.692Z,0
2018-11-27T00:06:47.273Z,0
2018-11-27T00:07:27.822Z,0
2018-11-27T00:08:08.379Z,0
2018-11-27T00:08:48.935Z,0
2018-11-27T00:09:29.499Z,0
2018-11-27T00:10:10.056Z,0
2018-11-27T00:10:50.617Z,0
2018-11-27T00:11:31.176Z,0
2018-11-27T00:12:11.735Z,0
2018-11-27T00:12:52.294Z,0
2018-11-27T00:13:32.852Z,0
2018-11-27T00:14:13.451Z,0
2018-11-27T00:14:54.097Z,0
2018-11-27T00:15:34.652Z,0
2018-11-27T00:16:15.251Z,0
2018-11-27T00:16:55.867Z,0
2018-11-27T00:17:36.446Z,0
2018-11-27T00:18:17.007Z,0
2018-11-27T00:18:57.555Z,0
2018-11-27T00:19:38.129Z,0
2018-11-27T00:21:50.937Z,0
2018-11-27T00:22:31.498Z,0
2018-11-27T00:23:12.053Z,0
2018-11-27T00:23:52.607Z,0
2018-11-27T00:24:33.168Z,0
2018-11-27T00:25:13.716Z,0
2018-11-27T00:25:54.281Z,0
2018-11-27T00:26:34.827Z,0
2018-11-27T00:27:15.386Z,0
2018-11-27T00:27:55.944Z,0
2018-11-27T00:28:36.504Z,0
2018-11-27T00:29:17.056Z,0
2018-11-27T00:29:57.613Z,0
2018-11-27T00:30:38.159Z,0
2018-11-27T00:31:18.720Z,0
2018-11-27T00:31:59.276Z,0
2018-11-27T00:32:39.831Z,0
2018-11-27T00:33:20.383Z,0
2018-11-27T00:34:00.936Z,0
2018-11-27T00:34:41.496Z,0
2018-11-27T00:35:22.070Z,0
2018-11-27T00:36:02.628Z,0
2018-11-27T00:36:43.165Z,0
2018-11-27T00:37:23.732Z,0
2018-11-27T00:38:04.281Z,0
2018-11-27T00:38:44.837Z,0
2018-11-27T00:39:25.399Z,0
2018-11-27T00:40:05.959Z,0
2018-11-27T00:40:46.511Z,0
2018-11-27T00:41:27.066Z,0
2018-11-27T00:42:07.638Z,0
2018-11-27T00:42:48.190Z,0
2018-11-27T00:43:28.768Z,0
2018-11-27T00:44:09.326Z,0
2018-11-27T00:44:49.896Z,0
2018-11-27T00:45:30.452Z,0
2018-11-27T00:46:11.017Z,0
2018-11-27T00:46:51.586Z,0
2018-11-27T00:47:32.142Z,0
2018-11-27T00:48:12.697Z,0
2018-11-27T00:48:53.260Z,0
2018-11-27T00:49:33.818Z,0
2018-11-27T00:50:14.363Z,0
2018-11-27T00:50:54.914Z,0
2018-11-27T00:51:35.485Z,0
2018-11-27T00:52:16.041Z,0
2018-11-27T00:52:56.591Z,0
2018-11-27T00:53:37.155Z,0
2018-11-27T00:54:17.694Z,0
2018-11-27T00:54:58.735Z,0
2018-11-27T00:55:38.819Z,0
2018-11-27T00:56:19.378Z,0
2018-11-27T00:56:59.941Z,0
2018-11-27T00:57:40.499Z,0
2018-11-27T00:58:21.075Z,0
2018-11-27T00:59:01.633Z,0
2018-11-27T00:59:42.203Z,0
2018-11-27T01:00:22.763Z,0
2018-11-27T01:01:03.317Z,0
2018-11-27T01:01:43.883Z,0
2018-11-27T01:02:24.446Z,0
2018-11-27T01:03:05.002Z,0
2018-11-27T01:03:45.565Z,0
2018-11-27T01:04:26.126Z,0
2018-11-27T01:05:06.678Z,0
2018-11-27T01:05:47.230Z,0
2018-11-27T01:06:27.803Z,0
2018-11-27T01:07:08.367Z,0
2018-11-27T01:07:48.924Z,0
2018-11-27T01:08:29.493Z,0
2018-11-27T01:09:10.049Z,0
2018-11-27T01:09:50.599Z,0
2018-11-27T01:10:31.168Z,0
2018-11-27T01:11:11.736Z,0
2018-11-27T01:11:52.303Z,0
2018-11-27T01:12:32.858Z,0
2018-11-27T01:13:13.412Z,0
2018-11-27T01:13:53.965Z,0
2018-11-27T01:14:34.521Z,0
2018-11-27T01:15:15.087Z,0
2018-11-27T01:15:55.657Z,0
2018-11-27T01:16:36.249Z,0
2018-11-27T01:17:16.799Z,0
2018-11-27T01:17:57.354Z,0
2018-11-27T01:18:37.939Z,0
2018-11-27T01:19:18.484Z,0
2018-11-27T01:19:59.050Z,0
2018-11-27T01:20:39.633Z,0
2018-11-27T01:21:20.197Z,0
2018-11-27T01:22:00.746Z,0
2018-11-27T01:22:41.302Z,0
2018-11-27T01:23:21.861Z,0
2018-11-27T01:24:02.418Z,0
2018-11-27T01:24:42.969Z,0
2018-11-27T01:25:23.542Z,0
2018-11-27T01:26:04.097Z,0
2018-11-27T01:26:44.688Z,0
2018-11-27T01:27:25.253Z,0
2018-11-27T01:28:05.812Z,0
2018-11-27T01:28:46.371Z,0
2018-11-27T01:29:26.930Z,0
2018-11-27T01:30:07.484Z,0
2018-11-27T01:30:48.050Z,0
2018-11-27T01:31:28.603Z,0
2018-11-27T01:32:09.164Z,0
2018-11-27T01:32:49.725Z,0
2018-11-27T01:33:30.325Z,0
2018-11-27T01:34:10.882Z,0
2018-11-27T01:34:51.437Z,0
2018-11-27T01:35:31.988Z,0
2018-11-27T01:36:12.538Z,0
2018-11-27T01:36:53.100Z,0
2018-11-27T01:37:33.660Z,0
2018-11-27T01:38:14.211Z,0
2018-11-27T01:38:54.768Z,0
2018-11-27T01:39:35.319Z,0
2018-11-27T01:40:15.884Z,0
2018-11-27T01:40:56.445Z,0
2018-11-27T01:41:36.999Z,0
2018-11-27T01:42:17.567Z,0
2018-11-27T01:42:58.126Z,0
2018-11-27T01:43:38.699Z,0
2018-11-27T01:44:19.247Z,0
2018-11-27T01:44:59.806Z,0
2018-11-27T01:45:40.356Z,0
2018-11-27T01:46:20.924Z,0
2018-11-27T01:47:01.489Z,0
2018-11-27T01:47:42.047Z,0
2018-11-27T01:48:22.618Z,0
2018-11-27T01:49:03.225Z,0
2018-11-27T01:49:44.015Z,0
2018-11-27T01:50:24.570Z,0
2018-11-27T01:51:05.140Z,0
2018-11-27T01:51:45.699Z,0
2018-11-27T01:52:26.263Z,0
2018-11-27T01:53:06.812Z,0
2018-11-27T01:53:47.365Z,0
2018-11-27T01:54:27.912Z,0
2018-11-27T01:55:08.481Z,0
2018-11-27T01:55:49.038Z,0
2018-11-27T01:56:29.598Z,0
2018-11-27T01:57:10.169Z,0
2018-11-27T01:57:50.730Z,0
2018-11-27T01:58:31.296Z,0
2018-11-27T01:59:11.853Z,0
2018-11-27T01:59:52.410Z,0
2018-11-27T02:00:32.973Z,0
2018-11-27T02:01:13.565Z,0
2018-11-27T02:01:54.124Z,0
2018-11-27T02:02:34.681Z,0
2018-11-27T02:03:15.250Z,0
2018-11-27T02:03:55.804Z,0
2018-11-27T02:04:36.364Z,0
2018-11-27T02:05:16.916Z,0
2018-11-27T02:05:57.480Z,0
2018-11-27T02:06:38.046Z,0
2018-11-27T02:07:18.650Z,0
2018-11-27T02:07:59.225Z,0
2018-11-27T02:08:39.805Z,0
2018-11-27T02:09:20.373Z,0
2018-11-27T02:10:00.935Z,0
2018-11-27T02:10:41.493Z,0
2018-11-27T02:11:22.048Z,0
2018-11-27T02:12:02.608Z,0
2018-11-27T02:12:43.177Z,0
2018-11-27T02:13:23.732Z,0
2018-11-27T02:14:04.289Z,0
2018-11-27T02:14:44.863Z,0
2018-11-27T02:15:25.424Z,0
2018-11-27T02:16:05.987Z,0
2018-11-27T02:16:46.552Z,0
2018-11-27T02:17:27.112Z,0
2018-11-27T02:18:07.686Z,0
2018-11-27T02:18:48.239Z,0
2018-11-27T02:19:28.831Z,0
2018-11-27T02:20:09.382Z,0
2018-11-27T02:20:49.977Z,0
2018-11-27T02:21:30.542Z,0
2018-11-27T02:22:11.096Z,0
2018-11-27T02:22:51.660Z,0
2018-11-27T02:23:32.209Z,0
2018-11-27T02:24:12.770Z,0
2018-11-27T02:24:53.331Z,0
2018-11-27T02:25:33.899Z,0
2018-11-27T02:26:14.476Z,0
2018-11-27T02:26:55.255Z,0
2018-11-27T02:27:35.815Z,0
2018-11-27T02:28:16.378Z,0
2018-11-27T02:28:56.920Z,0
2018-11-27T02:29:37.470Z,0
2018-11-27T02:30:18.049Z,0
2018-11-27T02:30:58.615Z,0
2018-11-27T02:31:39.194Z,0
2018-11-27T02:32:19.747Z,0
2018-11-27T02:33:00.304Z,0
2018-11-27T02:33:40.863Z,0
2018-11-27T02:34:21.414Z,0
2018-11-27T02:35:01.967Z,0
2018-11-27T02:35:42.515Z,0
2018-11-27T02:36:23.089Z,0
2018-11-27T02:37:03.648Z,0
2018-11-27T02:37:44.202Z,0
2018-11-27T02:38:24.760Z,0
2018-11-27T02:39:05.317Z,0
2018-11-27T02:39:45.877Z,0
2018-11-27T02:40:26.438Z,0
2018-11-27T02:41:07.001Z,0
2018-11-27T02:41:47.547Z,0
2018-11-27T02:42:28.117Z,0
2018-11-27T02:43:08.676Z,0
2018-11-27T02:43:49.226Z,0
2018-11-27T02:44:29.829Z,0
2018-11-27T02:45:10.408Z,0
2018-11-27T02:45:50.959Z,0
2018-11-27T02:46:31.562Z,0
2018-11-27T02:47:12.990Z,0
2018-11-27T02:47:52.695Z,0
2018-11-27T02:48:33.288Z,0
2018-11-27T02:49:13.858Z,0
2018-11-27T02:49:54.763Z,0
2018-11-27T02:50:35.346Z,0
2018-11-27T02:51:15.902Z,0
2018-11-27T02:51:56.455Z,0
2018-11-27T02:52:37.014Z,0
2018-11-27T02:53:17.567Z,0
2018-11-27T02:53:58.113Z,0
2018-11-27T02:54:38.667Z,0
2018-11-27T02:55:19.221Z,0
2018-11-27T02:55:59.780Z,0
2018-11-27T02:56:40.374Z,0
2018-11-27T02:57:20.931Z,0
2018-11-27T02:58:01.499Z,0
2018-11-27T02:58:42.046Z,0
2018-11-27T02:59:22.612Z,0
2018-11-27T03:00:03.178Z,0
2018-11-27T03:00:43.785Z,0
2018-11-27T03:01:24.339Z,0
2018-11-27T03:02:04.903Z,0
2018-11-27T03:02:45.466Z,0
2018-11-27T03:03:26.021Z,0
2018-11-27T03:04:06.574Z,0
2018-11-27T03:04:47.139Z,0
2018-11-27T03:05:27.699Z,0
2018-11-27T03:06:08.259Z,0
2018-11-27T03:06:48.816Z,0
2018-11-27T03:07:29.383Z,0
2018-11-27T03:08:09.956Z,0
2018-11-27T03:08:50.517Z,0
2018-11-27T03:09:31.062Z,0
2018-11-27T03:10:11.658Z,0
2018-11-27T03:10:52.209Z,0
2018-11-27T03:11:32.773Z,0
2018-11-27T03:12:13.328Z,0
2018-11-27T03:12:53.883Z,0
2018-11-27T03:13:34.462Z,0
2018-11-27T03:14:15.012Z,0
2018-11-27T03:14:55.582Z,0
2018-11-27T03:15:36.143Z,0
2018-11-27T03:16:16.706Z,0
2018-11-27T03:16:57.261Z,0
2018-11-27T03:17:37.818Z,0
2018-11-27T03:18:18.363Z,0
2018-11-27T03:18:58.922Z,0
2018-11-27T03:19:39.550Z,0
2018-11-27T03:20:20.114Z,0
2018-11-27T03:21:00.676Z,0
2018-11-27T03:21:41.232Z,0
2018-11-27T03:22:21.792Z,0
2018-11-27T03:23:02.365Z,0
2018-11-27T03:23:42.931Z,0
2018-11-27T03:24:23.496Z,0
2018-11-27T03:25:04.062Z,0
2018-11-27T03:25:44.622Z,0
2018-11-27T03:26:25.210Z,0
2018-11-27T03:27:05.766Z,0
2018-11-27T03:27:46.346Z,0
2018-11-27T03:28:26.911Z,0
2018-11-27T03:29:07.465Z,0
2018-11-27T03:29:48.087Z,0
2018-11-27T03:30:28.583Z,0
2018-11-27T03:31:09.132Z,0
2018-11-27T03:31:49.699Z,0
2018-11-27T03:32:30.261Z,0
2018-11-27T03:33:10.820Z,0
2018-11-27T03:33:51.424Z,0
2018-11-27T03:34:32.017Z,0
2018-11-27T03:35:12.598Z,0
2018-11-27T03:35:53.147Z,0
2018-11-27T03:36:33.710Z,0
2018-11-27T03:37:14.282Z,0
2018-11-27T03:37:54.854Z,0
2018-11-27T03:38:35.418Z,0
2018-11-27T03:39:15.977Z,0
2018-11-27T03:39:56.544Z,0
2018-11-27T03:40:37.113Z,0
2018-11-27T03:41:17.679Z,0
2018-11-27T03:41:58.232Z,0
2018-11-27T03:42:38.781Z,0
2018-11-27T03:43:19.334Z,0
2018-11-27T03:43:59.892Z,0
2018-11-27T03:44:40.450Z,0
2018-11-27T03:45:21.014Z,0
2018-11-27T03:46:01.591Z,0
2018-11-27T03:46:42.139Z,0
2018-11-27T03:47:22.702Z,0
2018-11-27T03:48:03.269Z,0
2018-11-27T03:48:43.817Z,0
2018-11-27T03:49:24.379Z,0
2018-11-27T03:50:04.946Z,0
2018-11-27T03:50:45.501Z,0
2018-11-27T03:51:26.067Z,0
2018-11-27T03:52:06.625Z,0
2018-11-27T03:52:47.177Z,0
2018-11-27T03:53:27.761Z,0
2018-11-27T03:54:08.338Z,0
2018-11-27T03:54:48.900Z,0
2018-11-27T03:55:29.478Z,0
2018-11-27T03:56:10.030Z,0
2018-11-27T03:56:50.634Z,0
2018-11-27T03:57:31.202Z,0
2018-11-27T03:58:11.761Z,0
2018-11-27T03:58:52.339Z,0
2018-11-27T03:59:32.888Z,0
2018-11-27T04:00:13.458Z,0
2018-11-27T04:00:54.045Z,0
2018-11-27T04:01:34.598Z,0
2018-11-27T04:02:15.169Z,0
2018-11-27T04:02:55.717Z,0
2018-11-27T04:03:36.277Z,0
2018-11-27T04:04:16.877Z,0
2018-11-27T04:04:57.430Z,0
2018-11-27T04:05:37.991Z,0
2018-11-27T04:06:18.551Z,0
2018-11-27T04:06:59.129Z,0
2018-11-27T04:07:39.671Z,0
2018-11-27T04:08:20.235Z,0
2018-11-27T04:09:00.786Z,0
2018-11-27T04:09:41.340Z,0
2018-11-27T04:10:21.917Z,0
2018-11-27T04:11:02.465Z,0
2018-11-27T04:11:43.077Z,0
2018-11-27T04:12:23.643Z,0
2018-11-27T04:13:04.198Z,0
2018-11-27T04:13:44.754Z,0
2018-11-27T04:14:25.301Z,0
2018-11-27T04:15:05.861Z,0
2018-11-27T04:15:46.414Z,0
2018-11-27T04:16:26.999Z,0
2018-11-27T04:17:07.552Z,0
2018-11-27T04:17:48.139Z,0
2018-11-27T04:18:28.711Z,0
2018-11-27T04:19:09.280Z,0
2018-11-27T04:19:49.824Z,0
2018-11-27T04:20:30.389Z,0
2018-11-27T04:21:10.970Z,0
2018-11-27T04:21:51.530Z,0
2018-11-27T04:22:32.075Z,0
2018-11-27T04:23:12.634Z,0
2018-11-27T04:23:53.196Z,0
2018-11-27T04:24:33.750Z,0
2018-11-27T04:25:14.308Z,0
2018-11-27T04:25:54.860Z,0
2018-11-27T04:26:35.408Z,0
2018-11-27T04:27:15.987Z,0
2018-11-27T04:27:56.606Z,0
2018-11-27T04:28:37.162Z,0
2018-11-27T04:29:17.714Z,0
2018-11-27T04:29:58.285Z,0
2018-11-27T04:30:38.841Z,0
2018-11-27T04:31:19.392Z,0
2018-11-27T04:31:59.952Z,0
2018-11-27T04:32:40.506Z,0
2018-11-27T04:33:21.085Z,0
2018-11-27T04:34:01.647Z,0
2018-11-27T04:34:42.197Z,0
2018-11-27T04:35:22.760Z,0
2018-11-27T04:36:03.323Z,0
2018-11-27T04:36:43.878Z,0
2018-11-27T04:37:24.436Z,0
2018-11-27T04:38:04.997Z,0
2018-11-27T04:38:45.564Z,0
2018-11-27T04:39:26.115Z,0
2018-11-27T04:40:06.691Z,0
2018-11-27T04:40:47.249Z,0
2018-11-27T04:41:27.811Z,0
2018-11-27T04:42:08.378Z,0
2018-11-27T04:42:48.943Z,0
2018-11-27T04:43:29.492Z,0
2018-11-27T04:44:10.047Z,0
2018-11-27T04:44:50.602Z,0
2018-11-27T04:45:31.159Z,0
2018-11-27T04:46:11.706Z,0
2018-11-27T04:46:52.268Z,0
2018-11-27T04:47:32.839Z,0
2018-11-27T04:48:13.404Z,0
2018-11-27T04:48:53.961Z,0
2018-11-27T04:49:34.522Z,0
2018-11-27T04:50:15.074Z,0
2018-11-27T04:50:55.671Z,0
2018-11-27T04:51:36.218Z,0
2018-11-27T04:52:16.779Z,0
2018-11-27T04:52:57.349Z,0
2018-11-27T04:53:37.923Z,0
2018-11-27T04:54:18.484Z,0
2018-11-27T04:54:59.051Z,0
2018-11-27T04:55:39.610Z,0
2018-11-27T04:56:20.173Z,0
2018-11-27T04:57:00.741Z,0
2018-11-27T04:57:41.300Z,0
2018-11-27T04:58:21.881Z,0
2018-11-27T04:59:02.447Z,0
2018-11-27T04:59:43.058Z,0
2018-11-27T05:00:23.644Z,0
2018-11-27T05:01:04.262Z,0
2018-11-27T05:01:44.914Z,0
2018-11-27T05:02:25.464Z,0
2018-11-27T05:03:06.031Z,0
2018-11-27T05:03:46.578Z,0
2018-11-27T05:04:27.142Z,0
2018-11-27T05:05:07.697Z,0
2018-11-27T05:05:48.253Z,0
2018-11-27T05:06:28.812Z,0
2018-11-27T05:07:09.382Z,0
2018-11-27T05:07:49.925Z,0
2018-11-27T05:08:30.483Z,0
2018-11-27T05:09:11.037Z,0
2018-11-27T05:09:51.589Z,0
2018-11-27T05:10:32.145Z,0
2018-11-27T05:11:12.705Z,0
2018-11-27T05:11:53.258Z,0
2018-11-27T05:12:33.818Z,0
2018-11-27T05:13:14.375Z,0
2018-11-27T05:13:54.941Z,0
2018-11-27T05:14:35.512Z,0
2018-11-27T05:15:16.072Z,0
2018-11-27T05:15:56.618Z,0
2018-11-27T05:16:37.180Z,0
2018-11-27T05:17:17.738Z,0
2018-11-27T05:17:58.286Z,0
2018-11-27T05:18:38.842Z,0
2018-11-27T05:19:19.414Z,0
2018-11-27T05:19:59.989Z,0
2018-11-27T05:20:40.558Z,0
2018-11-27T05:21:21.114Z,0
2018-11-27T05:22:01.663Z,0
2018-11-27T05:22:42.227Z,0
2018-11-27T05:23:22.789Z,0
2018-11-27T05:24:03.359Z,0
2018-11-27T05:24:44.993Z,0
2018-11-27T05:25:24.477Z,0
2018-11-27T05:26:05.030Z,0
2018-11-27T05:26:45.590Z,0
2018-11-27T05:27:26.153Z,0
2018-11-27T05:28:06.719Z,0
2018-11-27T05:28:47.281Z,0
2018-11-27T05:29:27.867Z,0
2018-11-27T05:30:08.419Z,0
2018-11-27T05:30:48.984Z,0
2018-11-27T05:31:29.561Z,0
2018-11-27T05:32:10.117Z,0
2018-11-27T05:32:50.686Z,0
2018-11-27T05:33:31.237Z,0
2018-11-27T05:34:11.801Z,0
2018-11-27T05:34:52.363Z,0
2018-11-27T05:35:32.910Z,0
2018-11-27T05:36:13.485Z,0
2018-11-27T05:36:54.042Z,0
2018-11-27T05:37:34.603Z,0
2018-11-27T05:38:15.163Z,0
2018-11-27T05:38:55.722Z,0
2018-11-27T05:39:36.293Z,0
2018-11-27T05:40:16.831Z,0
2018-11-27T05:40:57.395Z,0
2018-11-27T05:41:37.951Z,0
2018-11-27T05:42:18.509Z,0
2018-11-27T05:42:59.073Z,0
2018-11-27T05:43:39.651Z,0
2018-11-27T05:44:20.242Z,0
2018-11-27T05:45:00.831Z,0
2018-11-27T05:45:41.420Z,0
2018-11-27T05:46:21.985Z,0
2018-11-27T05:47:02.544Z,0
2018-11-27T05:47:43.114Z,0
2018-11-27T05:48:23.753Z,0
2018-11-27T05:49:04.293Z,0
2018-11-27T05:49:44.856Z,0
2018-11-27T05:50:25.449Z,0
2018-11-27T05:51:06.034Z,0
2018-11-27T05:51:46.612Z,0
2018-11-27T05:52:27.186Z,0
2018-11-27T05:53:07.744Z,0
2018-11-27T05:53:48.298Z,0
2018-11-27T05:54:28.885Z,0
2018-11-27T05:55:09.470Z,0
2018-11-27T05:55:50.024Z,0
2018-11-27T05:56:30.569Z,0
2018-11-27T05:57:11.119Z,0
2018-11-27T05:57:51.680Z,0
2018-11-27T05:58:32.250Z,0
2018-11-27T05:59:12.842Z,0
2018-11-27T05:59:53.395Z,0
2018-11-27T06:00:34.003Z,0
2018-11-27T06:01:14.662Z,0
2018-11-27T06:01:55.329Z,0
2018-11-27T06:02:35.822Z,0
2018-11-27T06:03:17.159Z,0
2018-11-27T06:03:56.950Z,0
2018-11-27T06:04:37.506Z,0
2018-11-27T06:05:18.082Z,0
2018-11-27T06:05:58.618Z,0
2018-11-27T06:06:39.335Z,0
2018-11-27T06:07:19.893Z,0
2018-11-27T06:08:00.452Z,0
2018-11-27T06:08:41.008Z,0
2018-11-27T06:09:21.565Z,0
2018-11-27T06:10:02.134Z,0
2018-11-27T06:10:42.694Z,0
2018-11-27T06:11:23.252Z,0
2018-11-27T06:12:03.809Z,0
2018-11-27T06:12:44.367Z,0
2018-11-27T06:13:24.932Z,0
2018-11-27T06:14:05.488Z,0
2018-11-27T06:14:46.061Z,0
2018-11-27T06:15:26.610Z,0
2018-11-27T06:16:07.163Z,0
2018-11-27T06:16:47.733Z,0
2018-11-27T06:17:28.292Z,0
2018-11-27T06:18:08.851Z,0
2018-11-27T06:18:49.440Z,0
2018-11-27T06:19:30.006Z,0
2018-11-27T06:20:10.634Z,0
2018-11-27T06:20:51.199Z,0
2018-11-27T06:21:31.759Z,0
2018-11-27T06:22:12.317Z,0
2018-11-27T06:22:52.868Z,0
2018-11-27T06:23:33.420Z,0
2018-11-27T06:24:13.976Z,0
2018-11-27T06:24:54.530Z,0
2018-11-27T06:25:35.074Z,0
2018-11-27T06:26:15.634Z,0
2018-11-27T06:26:56.199Z,0
2018-11-27T06:27:36.750Z,0
2018-11-27T06:28:17.312Z,0
2018-11-27T06:28:57.875Z,0
2018-11-27T06:29:38.441Z,0
2018-11-27T06:30:19.012Z,0
2018-11-27T06:30:59.554Z,0
2018-11-27T06:31:40.106Z,0
2018-11-27T06:32:21.438Z,0
2018-11-27T06:33:01.322Z,0
2018-11-27T06:33:41.870Z,0
2018-11-27T06:34:22.430Z,0
2018-11-27T06:35:03.001Z,0
2018-11-27T06:35:43.557Z,0
2018-11-27T06:36:24.101Z,0
2018-11-27T06:37:04.809Z,0
2018-11-27T06:37:45.374Z,0
2018-11-27T06:38:26.014Z,0
2018-11-27T06:39:06.595Z,0
2018-11-27T06:39:47.405Z,0
2018-11-27T06:40:27.966Z,0
2018-11-27T06:41:08.520Z,0
2018-11-27T06:41:49.084Z,0
2018-11-27T06:42:29.650Z,0
2018-11-27T06:43:10.217Z,0
2018-11-27T06:43:50.765Z,0
2018-11-27T06:44:31.314Z,0
2018-11-27T06:45:11.864Z,0
2018-11-27T06:45:52.422Z,0
2018-11-27T06:46:32.991Z,0
2018-11-27T06:47:13.540Z,0
2018-11-27T06:47:54.097Z,0
2018-11-27T06:48:34.663Z,0
2018-11-27T06:49:15.219Z,0
2018-11-27T06:49:55.772Z,0
2018-11-27T06:50:36.346Z,0
2018-11-27T06:51:16.908Z,0
2018-11-27T06:51:57.479Z,0
2018-11-27T06:52:38.020Z,0
2018-11-27T06:53:18.593Z,0
2018-11-27T06:53:59.147Z,0
2018-11-27T06:54:39.717Z,0
2018-11-27T06:55:20.286Z,0
2018-11-27T06:56:00.864Z,0
2018-11-27T06:56:41.456Z,0
2018-11-27T06:57:22.023Z,0
2018-11-27T06:58:02.580Z,5
2018-11-27T06:58:43.160Z,5
2018-11-27T06:59:23.724Z,5
2018-11-27T07:00:04.309Z,5
2018-11-27T07:00:44.992Z,5
2018-11-27T07:01:25.534Z,5
2018-11-27T07:02:06.094Z,5
2018-11-27T07:02:46.662Z,5
2018-11-27T07:03:27.233Z,5
2018-11-27T07:04:07.788Z,5
2018-11-27T07:04:48.335Z,5
2018-11-27T07:05:28.880Z,5
2018-11-27T07:06:09.447Z,5
2018-11-27T07:06:50.009Z,5
2018-11-27T07:07:30.582Z,5
2018-11-27T07:08:11.133Z,5
2018-11-27T07:08:51.694Z,5
2018-11-27T07:09:32.258Z,5
2018-11-27T07:10:12.857Z,5
2018-11-27T07:10:53.418Z,5
2018-11-27T07:11:33.967Z,5
2018-11-27T07:12:14.532Z,10
2018-11-27T07:12:55.096Z,10
2018-11-27T07:13:35.669Z,10
2018-11-27T07:14:16.232Z,10
2018-11-27T07:14:56.790Z,10
2018-11-27T07:15:37.340Z,10
2018-11-27T07:16:17.925Z,10
2018-11-27T07:16:58.472Z,10
2018-11-27T07:17:39.033Z,10
2018-11-27T07:18:19.581Z,10
2018-11-27T07:19:00.155Z,10
2018-11-27T07:19:40.751Z,10
2018-11-27T07:20:21.280Z,10
2018-11-27T07:21:01.833Z,15
2018-11-27T07:21:42.392Z,15
2018-11-27T07:22:23.055Z,15
2018-11-27T07:23:03.612Z,15
2018-11-27T07:23:44.171Z,15
2018-11-27T07:24:24.748Z,15
2018-11-27T07:25:05.336Z,15
2018-11-27T07:25:46.049Z,15
2018-11-27T07:26:26.602Z,15
2018-11-27T07:27:07.156Z,20
2018-11-27T07:27:47.730Z,20
2018-11-27T07:28:28.292Z,20
2018-11-27T07:29:08.858Z,20
2018-11-27T07:29:49.420Z,20
2018-11-27T07:30:29.970Z,20
2018-11-27T07:31:10.522Z,20
2018-11-27T07:31:51.182Z,20
2018-11-27T07:32:32.727Z,20
2018-11-27T07:33:13.243Z,25
2018-11-27T07:33:53.842Z,25
2018-11-27T07:34:34.402Z,25
2018-11-27T07:35:15.019Z,25
2018-11-27T07:35:55.597Z,25
2018-11-27T07:36:36.230Z,25
2018-11-27T07:37:16.789Z,30
2018-11-27T07:37:57.358Z,30
2018-11-27T07:38:37.959Z,30
2018-11-27T07:39:18.518Z,30
2018-11-27T07:40:03.245Z,30
2018-11-27T07:40:39.631Z,30
2018-11-27T07:41:20.189Z,30
2018-11-27T07:42:00.755Z,30
2018-11-27T07:42:41.310Z,30
2018-11-27T07:43:21.871Z,35
2018-11-27T07:44:02.422Z,35
2018-11-27T07:44:43.018Z,35
2018-11-27T07:45:23.590Z,35
2018-11-27T07:46:04.150Z,35
2018-11-27T07:46:44.698Z,35
2018-11-27T07:47:25.266Z,35
2018-11-27T07:48:05.825Z,35
2018-11-27T07:48:46.381Z,35
2018-11-27T07:49:26.941Z,35
2018-11-27T07:50:07.507Z,40
2018-11-27T07:50:48.060Z,40
2018-11-27T07:51:28.634Z,40
2018-11-27T07:52:09.192Z,40
2018-11-27T07:52:49.757Z,45
2018-11-27T07:53:30.333Z,45
2018-11-27T07:54:10.897Z,45
2018-11-27T07:54:51.476Z,45
2018-11-27T07:55:32.026Z,45
2018-11-27T07:56:12.584Z,45
2018-11-27T07:56:53.189Z,45
2018-11-27T07:57:33.747Z,45
2018-11-27T07:58:14.292Z,45
2018-11-27T07:58:54.853Z,45
2018-11-27T07:59:35.417Z,45
2018-11-27T08:00:15.989Z,45
2018-11-27T08:00:56.549Z,45
2018-11-27T08:01:37.123Z,50
2018-11-27T08:02:17.690Z,50
2018-11-27T08:02:58.277Z,50
2018-11-27T08:03:38.831Z,50
2018-11-27T08:04:19.440Z,50
2018-11-27T08:05:00.024Z,50
2018-11-27T08:05:40.616Z,55
2018-11-27T08:06:21.172Z,55
2018-11-27T08:07:01.741Z,55
2018-11-27T08:07:42.305Z,55
2018-11-27T08:08:22.868Z,60
2018-11-27T08:09:03.423Z,60
2018-11-27T08:09:45.747Z,60
2018-11-27T08:10:26.455Z,60
2018-11-27T08:11:08.158Z,60
2018-11-27T08:11:48.178Z,65
2018-11-27T08:12:28.833Z,65
2018-11-27T08:13:09.546Z,65
2018-11-27T08:13:50.102Z,65
2018-11-27T08:14:31.485Z,65
2018-11-27T08:15:11.983Z,65
2018-11-27T08:15:52.710Z,65
2018-11-27T08:16:33.390Z,65
2018-11-27T08:17:14.783Z,65
2018-11-27T08:17:55.357Z,70
2018-11-27T08:18:36.043Z,70
2018-11-27T08:19:16.683Z,70
2018-11-27T08:19:57.312Z,70
2018-11-27T08:20:37.863Z,70
2018-11-27T08:21:18.414Z,70
2018-11-27T08:21:58.982Z,70
2018-11-27T08:22:39.541Z,75
2018-11-27T08:23:20.099Z,75
2018-11-27T08:24:00.650Z,75
2018-11-27T08:24:41.225Z,75
2018-11-27T08:25:21.779Z,75
2018-11-27T08:26:02.329Z,75
2018-11-27T08:26:42.888Z,80
2018-11-27T08:27:24.222Z,80
2018-11-27T08:28:04.773Z,80
2018-11-27T08:28:45.332Z,80
2018-11-27T08:29:25.889Z,85
2018-11-27T08:30:06.433Z,85
2018-11-27T08:30:46.978Z,85
2018-11-27T08:31:27.547Z,85
2018-11-27T08:32:08.092Z,85
2018-11-27T08:32:48.647Z,85
2018-11-27T08:33:29.206Z,85
2018-11-27T08:34:09.801Z,85
2018-11-27T08:34:50.344Z,90
2018-11-27T08:35:30.906Z,90
2018-11-27T08:36:11.458Z,90
2018-11-27T08:36:52.026Z,95
2018-11-27T08:37:32.607Z,95
2018-11-27T08:38:13.160Z,100
2018-11-27T08:38:53.717Z,100
2018-11-27T08:39:34.266Z,105
2018-11-27T08:40:14.862Z,110
2018-11-27T08:40:55.408Z,110
2018-11-27T08:41:40.172Z,110
2018-11-27T08:42:16.531Z,110
2018-11-27T08:42:57.096Z,110
2018-11-27T08:43:37.694Z,110
2018-11-27T08:44:18.249Z,85
2018-11-27T08:44:58.812Z,95
2018-11-27T08:45:39.384Z,100
2018-11-27T08:46:19.938Z,105
2018-11-27T08:47:00.518Z,95
2018-11-27T08:47:41.094Z,95
2018-11-27T08:48:21.658Z,95
2018-11-27T08:49:02.211Z,75
2018-11-27T08:49:42.774Z,65
2018-11-27T08:50:23.333Z,60
2018-11-27T08:51:03.885Z,60
2018-11-27T08:51:44.447Z,60
2018-11-27T08:52:25.010Z,60
2018-11-27T08:53:05.562Z,65
2018-11-27T08:53:46.130Z,75
2018-11-27T08:54:26.704Z,75
2018-11-27T08:55:07.270Z,65
2018-11-27T08:55:47.820Z,70
2018-11-27T08:56:28.378Z,55
2018-11-27T08:57:09.036Z,50
2018-11-27T08:57:49.549Z,50
2018-11-27T08:58:30.102Z,50
2018-11-27T08:59:10.683Z,45
2018-11-27T08:59:51.254Z,45
2018-11-27T09:00:31.821Z,45
2018-11-27T09:01:12.372Z,45
2018-11-27T09:01:52.937Z,45
2018-11-27T09:02:33.495Z,45
2018-11-27T09:03:14.048Z,45
2018-11-27T09:03:54.607Z,45
2018-11-27T09:04:35.194Z,45
2018-11-27T09:05:15.751Z,45
2018-11-27T09:05:56.304Z,45
2018-11-27T09:06:36.863Z,45
2018-11-27T09:07:17.416Z,45
2018-11-27T09:07:57.995Z,45
2018-11-27T09:08:38.569Z,45
2018-11-27T09:09:19.149Z,45
2018-11-27T09:09:59.701Z,45
2018-11-27T09:10:40.259Z,40
2018-11-27T09:11:20.812Z,40
2018-11-27T09:12:01.393Z,40
2018-11-27T09:12:41.950Z,40
2018-11-27T09:13:22.511Z,40
2018-11-27T09:14:03.069Z,40
2018-11-27T09:14:43.631Z,40
2018-11-27T09:15:24.208Z,40
2018-11-27T09:16:04.759Z,40
2018-11-27T09:16:45.334Z,40
2018-11-27T09:17:25.898Z,40
2018-11-27T09:18:06.568Z,40
2018-11-27T09:18:47.180Z,40
2018-11-27T09:19:27.769Z,40
2018-11-27T09:20:08.383Z,40
2018-11-27T09:20:49.014Z,40
2018-11-27T09:21:29.678Z,40
2018-11-27T09:22:12.684Z,40
2018-11-27T09:22:50.853Z,40
2018-11-27T09:23:31.428Z,40
2018-11-27T09:24:11.982Z,40
2018-11-27T09:24:52.550Z,40
2018-11-27T09:25:33.112Z,40
2018-11-27T09:26:13.667Z,40
2018-11-27T09:26:54.310Z,40
2018-11-27T09:27:35.089Z,40
2018-11-27T09:28:15.656Z,40
2018-11-27T09:28:56.361Z,40
2018-11-27T09:29:36.923Z,40
2018-11-27T09:30:17.467Z,40
2018-11-27T09:30:58.040Z,40
2018-11-27T09:31:38.608Z,40
2018-11-27T09:32:19.165Z,40
2018-11-27T09:32:59.719Z,40
2018-11-27T09:33:40.333Z,40
2018-11-27T09:34:20.894Z,40
2018-11-27T09:35:01.454Z,40
2018-11-27T09:35:42.016Z,40
2018-11-27T09:36:22.574Z,40
2018-11-27T09:37:03.148Z,40
2018-11-27T09:37:43.708Z,40
2018-11-27T09:38:24.261Z,40
2018-11-27T09:39:04.807Z,40
2018-11-27T09:39:45.364Z,40
2018-11-27T09:40:25.919Z,40
2018-11-27T09:41:06.478Z,40
2018-11-27T09:41:47.038Z,40
2018-11-27T09:42:27.602Z,40
2018-11-27T09:43:08.441Z,40
2018-11-27T09:43:49.869Z,40
2018-11-27T09:44:30.423Z,40
2018-11-27T09:45:11.121Z,40
2018-11-27T09:45:51.679Z,40
2018-11-27T09:46:32.576Z,40
2018-11-27T09:47:13.340Z,40
2018-11-27T09:47:53.911Z,40
2018-11-27T09:48:34.461Z,40
2018-11-27T09:49:15.090Z,40
2018-11-27T09:49:55.664Z,40
2018-11-27T09:50:36.249Z,35
2018-11-27T09:51:16.995Z,35
2018-11-27T09:51:57.642Z,35
2018-11-27T09:52:40.696Z,35
2018-11-27T09:53:21.531Z,35
2018-11-27T09:54:02.121Z,35
2018-11-27T09:54:42.901Z,35